createdAt,value
2018-02-14T00:00:50.790Z,-2.90
2018-02-14T00:03:20.007Z,-2.80
2018-02-14T00:05:50.034Z,-2.90
2018-02-14T00:08:18.803Z,-2.70
2018-02-14T00:10:47.146Z,-2.60
2018-02-14T00:13:15.547Z,-2.60
2018-02-14T00:15:44.197Z,-2.70
2018-02-14T00:18:12.626Z,-2.90
2018-02-14T00:20:40.965Z,-3.00
2018-02-14T00:23:09.394Z,-3.20
2018-02-14T00:25:38.511Z,-3.30
2018-02-14T00:28:07.626Z,-3.20
2018-02-14T00:30:36.120Z,-3.30
2018-02-14T00:33:04.518Z,-3.30
2018-02-14T00:35:32.906Z,-3.30
2018-02-14T00:38:01.441Z,-3.40
2018-02-14T00:40:29.854Z,-3.30
2018-02-14T00:42:58.329Z,-3.30
2018-02-14T00:45:26.943Z,-3.20
2018-02-14T00:47:55.290Z,-3.20
2018-02-14T00:50:23.639Z,-3.20
2018-02-14T00:52:52.182Z,-3.30
2018-02-14T00:55:21.303Z,-3.30
2018-02-14T00:57:49.654Z,-3.30
2018-02-14T01:00:18.473Z,-3.20
2018-02-14T01:02:46.822Z,-3.30
2018-02-14T01:05:16.066Z,-3.30
2018-02-14T01:07:44.478Z,-3.30
2018-02-14T01:10:12.832Z,-2.90
2018-02-14T01:12:41.219Z,-2.90
2018-02-14T01:15:09.598Z,-3.00
2018-02-14T01:17:37.946Z,-2.90
2018-02-14T01:20:09.302Z,-2.90
2018-02-14T01:22:38.665Z,-2.90
2018-02-14T01:25:07.891Z,-3.00
2018-02-14T01:27:37.007Z,-3.10
2018-02-14T01:30:05.361Z,-3.10
2018-02-14T01:32:33.783Z,-3.10
2018-02-14T01:35:02.430Z,-2.90
2018-02-14T01:37:30.895Z,-3.00
2018-02-14T01:39:59.326Z,-3.20
2018-02-14T01:42:27.772Z,-3.40
2018-02-14T01:44:56.160Z,-3.50
2018-02-14T01:47:25.306Z,-3.60
2018-02-14T01:49:53.682Z,-3.60
2018-02-14T01:52:22.798Z,-3.80
2018-02-14T01:54:51.916Z,-3.80
2018-02-14T01:57:21.055Z,-3.80
2018-02-14T01:59:49.494Z,-3.90
2018-02-14T02:02:18.741Z,-3.40
2018-02-14T02:04:47.155Z,-3.50
2018-02-14T02:07:17.262Z,-3.40
2018-02-14T02:09:45.650Z,-3.50
2018-02-14T02:12:13.994Z,-3.40
2018-02-14T02:14:42.374Z,-3.20
2018-02-14T02:17:10.750Z,-3.50
2018-02-14T02:19:39.110Z,-3.80
2018-02-14T02:22:07.742Z,-3.90
2018-02-14T02:24:36.850Z,-4.10
2018-02-14T02:27:05.354Z,-4.10
2018-02-14T02:29:33.802Z,-4.00
2018-02-14T02:32:02.454Z,-4.10
2018-02-14T02:34:31.062Z,-4.20
2018-02-14T02:36:59.733Z,-4.10
2018-02-14T02:39:40.290Z,-3.70
2018-02-14T02:42:08.699Z,-3.40
2018-02-14T02:44:37.922Z,-3.60
2018-02-14T02:47:07.437Z,-3.80
2018-02-14T02:49:35.773Z,-3.80
2018-02-14T02:52:04.307Z,-3.80
2018-02-14T02:54:32.771Z,-4.00
2018-02-14T02:57:01.889Z,-3.90
2018-02-14T02:59:31.147Z,-4.00
2018-02-14T03:01:59.717Z,-4.00
2018-02-14T03:04:28.163Z,-4.00
2018-02-14T03:06:56.590Z,-3.80
2018-02-14T03:09:25.269Z,-4.00
2018-02-14T03:11:53.616Z,-4.00
2018-02-14T03:14:21.987Z,-4.00
2018-02-14T03:16:50.327Z,-4.10
2018-02-14T03:19:18.750Z,-4.20
2018-02-14T03:21:47.162Z,-4.30
2018-02-14T03:24:15.523Z,-4.40
2018-02-14T03:26:43.903Z,-4.40
2018-02-14T03:29:12.290Z,-4.20
2018-02-14T03:31:40.665Z,-4.20
2018-02-14T03:34:08.999Z,-4.00
2018-02-14T03:36:37.383Z,-3.70
2018-02-14T03:39:06.482Z,-3.90
2018-02-14T03:41:34.879Z,-3.90
2018-02-14T03:44:03.490Z,-3.80
2018-02-14T03:46:31.960Z,-3.80
2018-02-14T03:49:00.871Z,-3.90
2018-02-14T03:51:29.494Z,-4.00
2018-02-14T03:53:58.008Z,-4.20
2018-02-14T03:56:26.397Z,-4.20
2018-02-14T03:58:54.742Z,-4.10
2018-02-14T04:01:23.466Z,-4.00
2018-02-14T04:03:52.572Z,-3.70
2018-02-14T04:06:20.911Z,-3.70
2018-02-14T04:08:49.352Z,-3.80
2018-02-14T04:11:17.939Z,-3.90
2018-02-14T04:13:46.350Z,-4.10
2018-02-14T04:16:15.545Z,-4.40
2018-02-14T04:18:43.892Z,-4.40
2018-02-14T04:21:12.275Z,-4.50
2018-02-14T04:23:40.611Z,-4.60
2018-02-14T04:26:08.990Z,-4.60
2018-02-14T04:28:37.357Z,-4.60
2018-02-14T04:31:06.474Z,-4.60
2018-02-14T04:33:35.621Z,-4.60
2018-02-14T04:36:04.194Z,-4.60
2018-02-14T04:38:32.550Z,-4.60
2018-02-14T04:41:01.002Z,-4.50
2018-02-14T04:43:29.471Z,-4.50
2018-02-14T04:45:57.962Z,-4.60
2018-02-14T04:48:26.310Z,-4.50
2018-02-14T04:50:54.698Z,-4.50
2018-02-14T04:53:23.046Z,-4.50
2018-02-14T04:55:51.395Z,-4.50
2018-02-14T04:58:19.783Z,-4.50
2018-02-14T05:00:48.599Z,-4.50
2018-02-14T05:03:16.955Z,-4.50
2018-02-14T05:05:46.104Z,-4.10
2018-02-14T05:08:14.510Z,-4.20
2018-02-14T05:10:43.182Z,-4.10
2018-02-14T05:13:13.250Z,-4.00
2018-02-14T05:15:41.594Z,-4.00
2018-02-14T05:18:09.973Z,-4.10
2018-02-14T05:20:38.323Z,-4.20
2018-02-14T05:23:06.741Z,-4.30
2018-02-14T05:25:35.855Z,-4.30
2018-02-14T05:28:04.345Z,-4.30
2018-02-14T05:30:33.026Z,-4.40
2018-02-14T05:33:01.482Z,-4.50
2018-02-14T05:35:29.937Z,-4.50
2018-02-14T05:37:58.508Z,-4.50
2018-02-14T05:40:26.904Z,-4.60
2018-02-14T05:42:55.307Z,-4.60
2018-02-14T05:45:24.816Z,-4.60
2018-02-14T05:47:53.158Z,-4.60
2018-02-14T05:50:21.498Z,-4.60
2018-02-14T05:52:49.878Z,-4.60
2018-02-14T05:55:18.281Z,-4.60
2018-02-14T05:57:46.738Z,-4.60
2018-02-14T06:00:15.093Z,-4.60
2018-02-14T06:02:43.667Z,-4.50
2018-02-14T06:05:12.779Z,-4.90
2018-02-14T06:07:41.126Z,-5.00
2018-02-14T06:10:09.506Z,-5.00
2018-02-14T06:12:38.622Z,-5.10
2018-02-14T06:15:07.778Z,-5.10
2018-02-14T06:17:36.118Z,-5.10
2018-02-14T06:20:04.534Z,-5.10
2018-02-14T06:22:34.876Z,-5.10
2018-02-14T06:25:03.323Z,-5.10
2018-02-14T06:27:31.782Z,-5.10
2018-02-14T06:30:00.224Z,-5.30
2018-02-14T06:32:28.617Z,-5.30
2018-02-14T06:34:59.571Z,-5.30
2018-02-14T06:37:28.089Z,-5.40
2018-02-14T06:39:56.463Z,-5.30
2018-02-14T06:42:24.846Z,-5.10
2018-02-14T06:44:53.190Z,-5.00
2018-02-14T06:47:21.582Z,-5.00
2018-02-14T06:49:49.922Z,-5.00
2018-02-14T06:52:18.312Z,-5.00
2018-02-14T06:54:47.511Z,-4.90
2018-02-14T06:57:15.928Z,-4.90
2018-02-14T06:59:44.329Z,-4.90
2018-02-14T07:02:12.711Z,-4.90
2018-02-14T07:04:41.233Z,-4.80
2018-02-14T07:07:09.663Z,-4.80
2018-02-14T07:09:38.821Z,-4.70
2018-02-14T07:12:07.987Z,-4.70
2018-02-14T07:14:36.610Z,-4.80
2018-02-14T07:17:05.775Z,-4.70
2018-02-14T07:19:34.634Z,-4.70
2018-02-14T07:22:03.059Z,-4.70
2018-02-14T07:24:31.570Z,-4.60
2018-02-14T07:27:00.280Z,-4.50
2018-02-14T07:29:28.769Z,-4.40
2018-02-14T07:31:57.182Z,-4.30
2018-02-14T07:34:25.914Z,-4.30
2018-02-14T07:36:54.258Z,-4.20
2018-02-14T07:39:23.370Z,-4.60
2018-02-14T07:41:51.756Z,-4.60
2018-02-14T07:44:20.093Z,-4.60
2018-02-14T07:46:48.586Z,-4.50
2018-02-14T07:49:17.037Z,-4.30
2018-02-14T07:51:46.146Z,-4.10
2018-02-14T07:54:15.306Z,-3.90
2018-02-14T07:56:43.706Z,-3.90
2018-02-14T07:59:12.083Z,-3.70
2018-02-14T08:01:40.427Z,-3.90
2018-02-14T08:04:08.806Z,-3.90
2018-02-14T08:06:37.910Z,-3.80
2018-02-14T08:09:07.108Z,-3.60
2018-02-14T08:11:35.423Z,-3.70
2018-02-14T08:14:04.037Z,-3.50
2018-02-14T08:16:32.835Z,-3.30
2018-02-14T08:19:02.146Z,-3.40
2018-02-14T08:24:06.198Z,-3.60
2018-02-14T08:26:34.646Z,-3.60
2018-02-14T08:29:03.160Z,-3.60
2018-02-14T08:31:32.458Z,-3.30
2018-02-14T08:34:00.886Z,-3.40
2018-02-14T08:36:29.370Z,-3.30
2018-02-14T08:38:58.078Z,-3.40
2018-02-14T08:41:26.427Z,-3.30
2018-02-14T08:43:55.540Z,-3.10
2018-02-14T08:46:24.034Z,-3.10
2018-02-14T08:48:52.378Z,-2.90
2018-02-14T08:51:20.726Z,-2.80
2018-02-14T08:53:49.495Z,-2.90
2018-02-14T08:56:17.862Z,-2.90
2018-02-14T08:58:46.247Z,-2.80
2018-02-14T09:01:14.681Z,-2.60
2018-02-14T09:03:43.798Z,-2.40
2018-02-14T09:06:12.951Z,-2.70
2018-02-14T09:08:41.294Z,-2.70
2018-02-14T09:11:09.682Z,-2.90
2018-02-14T09:13:38.026Z,-2.90
2018-02-14T09:16:06.375Z,-2.70
2018-02-14T09:18:34.776Z,-2.30
2018-02-14T09:21:03.206Z,-2.00
2018-02-14T09:23:31.730Z,-1.90
2018-02-14T09:26:00.302Z,-1.80
2018-02-14T09:28:28.846Z,-1.80
2018-02-14T09:30:57.338Z,-1.80
2018-02-14T09:33:25.714Z,-1.90
2018-02-14T09:35:54.057Z,-1.90
2018-02-14T09:38:22.441Z,-2.00
2018-02-14T09:40:50.826Z,-1.90
2018-02-14T09:43:19.313Z,-1.90
2018-02-14T09:45:47.898Z,-1.70
2018-02-14T09:48:17.047Z,-1.30
2018-02-14T09:50:45.469Z,-1.40
2018-02-14T09:53:13.964Z,-1.30
2018-02-14T09:55:42.314Z,-1.40
2018-02-14T09:58:10.657Z,-1.50
2018-02-14T10:00:39.046Z,-1.40
2018-02-14T10:03:08.161Z,-1.30
2018-02-14T10:05:36.509Z,-1.30
2018-02-14T10:08:04.897Z,-1.60
2018-02-14T10:10:33.282Z,-1.50
2018-02-14T10:13:01.675Z,-1.40
2018-02-14T10:15:30.554Z,-1.40
2018-02-14T10:17:59.671Z,-1.40
2018-02-14T10:20:28.023Z,-1.40
2018-02-14T10:22:57.184Z,-1.60
2018-02-14T10:25:25.530Z,-1.60
2018-02-14T10:27:53.883Z,-1.60
2018-02-14T10:30:22.262Z,-1.70
2018-02-14T10:32:50.726Z,-1.70
2018-02-14T10:35:19.841Z,-1.40
2018-02-14T10:37:48.185Z,-1.40
2018-02-14T10:40:16.599Z,-1.10
2018-02-14T10:42:44.942Z,-0.80
2018-02-14T10:45:13.305Z,-0.40
2018-02-14T10:47:42.000Z,-0.20
2018-02-14T10:50:11.106Z,0.00
2018-02-14T10:52:40.218Z,-0.10
2018-02-14T10:55:08.603Z,-0.10
2018-02-14T10:57:37.730Z,-0.50
2018-02-14T11:00:06.114Z,-0.50
2018-02-14T11:02:40.193Z,-0.30
2018-02-14T11:05:14.157Z,-0.30
2018-02-14T11:07:43.305Z,-0.60
2018-02-14T11:10:11.658Z,-0.60
2018-02-14T11:12:40.450Z,-0.50
2018-02-14T11:15:09.566Z,-0.40
2018-02-14T11:17:37.923Z,-0.40
2018-02-14T11:20:06.299Z,-0.50
2018-02-14T11:22:34.678Z,-0.70
2018-02-14T11:25:03.034Z,-0.70
2018-02-14T11:27:31.422Z,-0.60
2018-02-14T11:29:59.770Z,-0.60
2018-02-14T11:32:28.125Z,-0.40
2018-02-14T11:34:56.507Z,-0.30
2018-02-14T11:37:24.881Z,-0.20
2018-02-14T11:39:53.274Z,-0.10
2018-02-14T11:42:21.867Z,-0.50
2018-02-14T11:44:50.978Z,-0.30
2018-02-14T11:47:19.336Z,-0.40
2018-02-14T11:49:47.723Z,-0.20
2018-02-14T11:52:16.069Z,-0.30
2018-02-14T11:54:44.450Z,-0.40
2018-02-14T11:57:12.798Z,-0.30
2018-02-14T11:59:41.170Z,-0.10
2018-02-14T12:02:09.515Z,0.00
2018-02-14T12:04:37.886Z,0.00
2018-02-14T12:07:07.002Z,-0.20
2018-02-14T12:09:36.146Z,0.00
2018-02-14T12:12:04.486Z,0.00
2018-02-14T12:14:32.864Z,0.00
2018-02-14T12:17:01.202Z,0.00
2018-02-14T12:19:29.579Z,-0.10
2018-02-14T12:21:58.727Z,-0.20
2018-02-14T12:24:27.076Z,-0.20
2018-02-14T12:26:56.217Z,0.10
2018-02-14T12:29:24.571Z,0.10
2018-02-14T12:31:53.689Z,0.30
2018-02-14T12:34:22.836Z,0.20
2018-02-14T12:36:51.222Z,0.20
2018-02-14T12:39:19.568Z,0.20
2018-02-14T12:41:48.670Z,0.20
2018-02-14T12:44:17.049Z,0.10
2018-02-14T12:46:45.390Z,-0.20
2018-02-14T12:49:13.782Z,-0.10
2018-02-14T12:51:42.167Z,-0.40
2018-02-14T12:54:10.553Z,-0.10
2018-02-14T12:56:38.894Z,-0.10
2018-02-14T12:59:07.279Z,-0.40
2018-02-14T13:01:35.618Z,-0.50
2018-02-14T13:04:04.309Z,-0.40
2018-02-14T13:06:33.452Z,-0.20
2018-02-14T13:09:01.786Z,-0.30
2018-02-14T13:11:30.170Z,-0.30
2018-02-14T13:14:00.341Z,-0.30
2018-02-14T13:16:29.449Z,-0.30
2018-02-14T13:18:58.613Z,-0.30
2018-02-14T13:21:27.146Z,-0.20
2018-02-14T13:23:56.250Z,0.10
2018-02-14T13:26:25.358Z,0.10
2018-02-14T13:28:54.516Z,0.00
2018-02-14T13:31:22.854Z,0.00
2018-02-14T13:33:51.968Z,-0.30
2018-02-14T13:36:21.127Z,-0.30
2018-02-14T13:38:49.473Z,-0.30
2018-02-14T13:41:17.822Z,-0.40
2018-02-14T13:43:46.214Z,-0.30
2018-02-14T13:46:14.562Z,-0.40
2018-02-14T13:48:42.962Z,-0.20
2018-02-14T13:51:11.415Z,-0.20
2018-02-14T13:53:39.762Z,-0.40
2018-02-14T13:56:08.150Z,-0.30
2018-02-14T13:58:36.506Z,-0.20
2018-02-14T14:01:04.858Z,-0.20
2018-02-14T14:03:33.910Z,-0.30
2018-02-14T14:06:02.258Z,-0.80
2018-02-14T14:08:30.619Z,-0.70
2018-02-14T14:10:59.013Z,-0.60
2018-02-14T14:13:27.363Z,-0.60
2018-02-14T14:15:55.749Z,-0.70
2018-02-14T14:18:24.898Z,-0.70
2018-02-14T14:20:53.241Z,-0.70
2018-02-14T14:23:22.402Z,-0.90
2018-02-14T14:25:50.786Z,-0.90
2018-02-14T14:28:19.170Z,-1.10
2018-02-14T14:30:47.838Z,-1.10
2018-02-14T14:33:16.959Z,-1.00
2018-02-14T14:35:45.306Z,-1.00
2018-02-14T14:38:13.693Z,-1.00
2018-02-14T14:40:42.118Z,-1.00
2018-02-14T14:43:11.237Z,-0.80
2018-02-14T14:45:39.623Z,-0.80
2018-02-14T14:48:08.770Z,-0.90
2018-02-14T14:50:37.118Z,-1.00
2018-02-14T14:53:06.266Z,-1.00
2018-02-14T14:55:34.623Z,-1.10
2018-02-14T14:58:03.738Z,-1.20
2018-02-14T15:00:32.122Z,-1.20
2018-02-14T15:03:01.273Z,-1.00
2018-02-14T15:05:29.622Z,-1.00
2018-02-14T15:07:58.782Z,-0.80
2018-02-14T15:10:27.129Z,-0.80
2018-02-14T15:12:55.527Z,-1.00
2018-02-14T15:15:23.916Z,-1.10
2018-02-14T15:17:52.299Z,-1.30
2018-02-14T15:20:21.415Z,-1.40
2018-02-14T15:22:49.801Z,-1.50
2018-02-14T15:25:18.154Z,-1.20
2018-02-14T15:27:46.545Z,-1.30
2018-02-14T15:30:14.958Z,-1.40
2018-02-14T15:32:44.070Z,-1.50
2018-02-14T15:35:13.282Z,-1.60
2018-02-14T15:37:43.085Z,-1.60
2018-02-14T15:40:11.485Z,-1.60
2018-02-14T15:42:39.838Z,-1.60
2018-02-14T15:45:08.227Z,-1.50
2018-02-14T15:47:36.570Z,-1.40
2018-02-14T15:50:05.689Z,-1.80
2018-02-14T15:52:34.073Z,-1.80
2018-02-14T15:55:03.190Z,-1.60
2018-02-14T15:57:31.582Z,-1.70
2018-02-14T15:59:59.926Z,-1.80
2018-02-14T16:02:28.309Z,-1.80
2018-02-14T16:04:56.658Z,-1.60
2018-02-14T16:07:25.046Z,-1.50
2018-02-14T16:09:53.438Z,-1.50
2018-02-14T16:12:21.832Z,-1.60
2018-02-14T16:14:50.182Z,-1.70
2018-02-14T16:17:18.562Z,-1.80
2018-02-14T16:19:47.002Z,-1.90
2018-02-14T16:22:15.349Z,-1.80
2018-02-14T16:24:43.725Z,-1.90
2018-02-14T16:27:12.070Z,-2.10
2018-02-14T16:29:40.461Z,-2.00
2018-02-14T16:32:08.854Z,-2.20
2018-02-14T16:34:37.251Z,-2.10
2018-02-14T16:37:05.634Z,-1.90
2018-02-14T16:39:34.760Z,-1.90
2018-02-14T16:42:03.142Z,-1.90
2018-02-14T16:44:31.490Z,-2.00
2018-02-14T16:46:59.839Z,-2.00
2018-02-14T16:49:28.231Z,-1.90
2018-02-14T16:51:56.586Z,-1.80
2018-02-14T16:54:25.701Z,-1.60
2018-02-14T16:56:54.845Z,-1.50
2018-02-14T16:59:23.190Z,-1.50
2018-02-14T17:01:52.342Z,-1.30
2018-02-14T17:04:20.722Z,-1.30
2018-02-14T17:06:49.115Z,-1.30
2018-02-14T17:09:17.498Z,-1.40
2018-02-14T17:11:45.850Z,-1.40
2018-02-14T17:14:14.237Z,-1.60
2018-02-14T17:16:42.604Z,-1.70
2018-02-14T17:19:10.950Z,-1.60
2018-02-14T17:21:40.238Z,-1.70
2018-02-14T17:24:08.614Z,-1.70
2018-02-14T17:26:36.995Z,-1.70
2018-02-14T17:29:05.344Z,-1.70
2018-02-14T17:31:33.733Z,-1.90
2018-02-14T17:34:02.086Z,-1.90
2018-02-14T17:36:30.466Z,-1.80
2018-02-14T17:38:58.858Z,-1.70
2018-02-14T17:41:27.205Z,-1.80
2018-02-14T17:43:55.557Z,-1.90
2018-02-14T17:46:23.941Z,-1.90
2018-02-14T17:48:52.362Z,-1.80
2018-02-14T17:51:21.473Z,-2.10
2018-02-14T17:53:49.818Z,-2.10
2018-02-14T17:56:18.201Z,-1.90
2018-02-14T17:58:46.629Z,-2.00
2018-02-14T18:01:14.974Z,-2.00
2018-02-14T18:03:43.318Z,-1.80
2018-02-14T18:06:12.465Z,-1.60
2018-02-14T18:08:41.031Z,-1.60
2018-02-14T18:11:10.151Z,-1.50
2018-02-14T18:13:38.497Z,-1.50
2018-02-14T18:16:12.746Z,-1.50
2018-02-14T18:18:41.850Z,-1.60
2018-02-14T18:21:10.998Z,-1.60
2018-02-14T18:23:39.378Z,-1.60
2018-02-14T18:26:07.737Z,-1.60
2018-02-14T18:28:36.236Z,-1.70
2018-02-14T18:31:04.578Z,-1.80
2018-02-14T18:33:33.342Z,-1.70
2018-02-14T18:36:01.734Z,-1.50
2018-02-14T18:38:30.082Z,-1.30
2018-02-14T18:40:58.469Z,-1.30
2018-02-14T18:43:26.854Z,-1.30
2018-02-14T18:45:55.215Z,-1.30
2018-02-14T18:48:23.620Z,-1.20
2018-02-14T18:50:51.970Z,-1.30
2018-02-14T18:53:21.078Z,-1.30
2018-02-14T18:55:50.229Z,-1.50
2018-02-14T18:58:18.578Z,-1.50
2018-02-14T19:00:47.694Z,-1.50
2018-02-14T19:03:16.086Z,-1.60
2018-02-14T19:05:44.458Z,-1.50
2018-02-14T19:08:12.797Z,-1.40
2018-02-14T19:10:41.182Z,-1.50
2018-02-14T19:13:09.530Z,-1.40
2018-02-14T19:15:38.245Z,-1.30
2018-02-14T19:18:06.598Z,-1.30
2018-02-14T19:20:34.962Z,-1.30
2018-02-14T19:23:03.342Z,-1.30
2018-02-14T19:25:31.694Z,-1.30
2018-02-14T19:28:00.846Z,-1.40
2018-02-14T19:30:29.199Z,-1.40
2018-02-14T19:32:58.345Z,-1.80
2018-02-14T19:35:26.694Z,-1.80
2018-02-14T19:37:55.079Z,-1.90
2018-02-14T19:40:23.464Z,-1.90
2018-02-14T19:42:51.807Z,-1.70
2018-02-14T19:45:22.079Z,-1.60
2018-02-14T19:47:52.631Z,-1.60
2018-02-14T19:50:22.068Z,-1.60
2018-02-14T19:52:53.121Z,-1.50
2018-02-14T19:55:23.382Z,-1.50
2018-02-14T19:57:52.357Z,-1.40
2018-02-14T20:00:21.636Z,-1.50
2018-02-14T20:02:50.368Z,-1.50
2018-02-14T20:05:20.092Z,-1.50
2018-02-14T20:07:48.892Z,-1.40
2018-02-14T20:10:17.899Z,-1.50
2018-02-14T20:12:49.255Z,-1.70
2018-02-14T20:15:18.076Z,-1.70
2018-02-14T20:17:47.718Z,-1.70
2018-02-14T20:20:18.642Z,-2.00
2018-02-14T20:22:47.361Z,-2.00
2018-02-14T20:25:17.873Z,-2.20
2018-02-14T20:27:49.967Z,-2.00
2018-02-14T20:30:18.853Z,-2.00
2018-02-14T20:32:48.387Z,-1.90
2018-02-14T20:35:17.068Z,-1.90
2018-02-14T20:37:46.381Z,-1.90
2018-02-14T20:40:15.173Z,-1.90
2018-02-14T20:42:45.746Z,-1.90
2018-02-14T20:45:14.423Z,-2.00
2018-02-14T20:47:43.327Z,-2.10
2018-02-14T20:50:13.664Z,-2.20
2018-02-14T20:52:43.489Z,-2.20
2018-02-14T20:55:13.928Z,-2.20
2018-02-14T20:57:42.626Z,-2.00
2018-02-14T21:05:21.018Z,-2.20
2018-02-14T21:07:50.507Z,-1.90
2018-02-14T21:10:20.572Z,-1.80
2018-02-14T21:12:49.178Z,-1.70
2018-02-14T21:15:20.318Z,-2.00
2018-02-14T21:17:50.866Z,-1.90
2018-02-14T21:20:19.772Z,-1.90
2018-02-14T21:22:49.895Z,-1.80
2018-02-14T21:25:18.594Z,-1.80
2018-02-14T21:27:48.214Z,-2.00
2018-02-14T21:30:18.440Z,-2.10
2018-02-14T21:32:47.272Z,-1.90
2018-02-14T21:35:18.135Z,-1.70
2018-02-14T21:37:48.745Z,-1.70
2018-02-14T21:40:18.374Z,-1.80
2018-02-14T21:42:47.572Z,-1.80
2018-02-14T21:45:17.092Z,-1.70
2018-02-14T21:47:46.403Z,-1.60
2018-02-14T21:50:15.515Z,-1.70
2018-02-14T21:52:44.312Z,-1.70
2018-02-14T21:55:12.773Z,-1.70
2018-02-14T21:57:41.229Z,-1.90
2018-02-14T22:00:09.594Z,-2.00
2018-02-14T22:02:38.758Z,-1.90
2018-02-14T22:05:07.127Z,-1.90
2018-02-14T22:07:35.698Z,-1.90
2018-02-14T22:10:04.829Z,-1.80
2018-02-14T22:12:33.231Z,-1.80
2018-02-14T22:15:01.593Z,-2.00
2018-02-14T22:17:30.030Z,-2.00
2018-02-14T22:19:58.410Z,-1.90
2018-02-14T22:22:26.819Z,-2.00
2018-02-14T22:24:55.194Z,-2.00
2018-02-14T22:27:23.593Z,-1.80
2018-02-14T22:29:52.063Z,-1.70
2018-02-14T22:32:20.421Z,-1.70
2018-02-14T22:34:49.865Z,-1.90
2018-02-14T22:37:18.230Z,-1.90
2018-02-14T22:39:46.593Z,-2.10
2018-02-14T22:42:14.985Z,-2.10
2018-02-14T22:44:43.355Z,-2.10
2018-02-14T22:47:11.746Z,-2.10
2018-02-14T22:49:40.154Z,-2.00
2018-02-14T22:52:08.527Z,-1.90
2018-02-14T22:54:37.079Z,-2.10
2018-02-14T22:57:06.206Z,-2.00
2018-02-14T22:59:34.657Z,-2.00
2018-02-14T23:02:03.029Z,-1.80
2018-02-14T23:04:31.446Z,-1.70
2018-02-14T23:07:01.349Z,-1.70
2018-02-14T23:09:30.116Z,-1.70
2018-02-14T23:11:58.574Z,-1.70
2018-02-14T23:14:26.941Z,-1.70
2018-02-14T23:16:55.338Z,-2.00
2018-02-14T23:19:23.702Z,-2.00
2018-02-14T23:21:52.073Z,-1.90
2018-02-14T23:24:20.473Z,-1.90
2018-02-14T23:26:48.922Z,-1.80
2018-02-14T23:29:18.081Z,-1.90
2018-02-14T23:31:46.486Z,-1.90
2018-02-14T23:34:14.893Z,-2.20
2018-02-14T23:36:43.266Z,-2.30
2018-02-14T23:39:11.636Z,-2.20
2018-02-14T23:41:40.037Z,-2.00
2018-02-14T23:44:08.424Z,-1.90
2018-02-14T23:46:36.822Z,-1.80
2018-02-14T23:49:05.223Z,-1.80
2018-02-14T23:51:33.621Z,-1.80
2018-02-14T23:54:02.028Z,-2.00
2018-02-14T23:56:30.431Z,-2.20
2018-02-14T23:58:58.830Z,-2.20
